Time;durP1;ratioP1;P1;durP2;ratioP2;P2;SDS_P1;SDS_P2;PMS_P1;PMS_P2;Temp;Humidity;BMP_temperature;BMP_pressure;BME280_temperature;BME280_humidity;BME280_pressure;Samples;Min_cycle;Max_cycle;Signal;HPM_P1;HPM_P2
2021/01/29 00:00:54;;;;;;;0.50;0.47;;;8.50;99.90;;;;;;5053029;28;20472;-83
2021/01/29 00:03:20;;;;;;;0.50;0.40;;;8.20;99.90;;;;;;5053316;28;20478;-83
2021/01/29 00:05:51;;;;;;;0.80;0.80;;;8.40;99.90;;;;;;5053015;28;20504;-84
2021/01/29 00:08:19;;;;;;;0.73;0.53;;;8.40;99.90;;;;;;5052043;28;20568;-85
2021/01/29 00:10:46;;;;;;;0.67;0.50;;;;;;;;;;5053400;28;20447;-84
2021/01/29 00:13:14;;;;;;;0.53;0.43;;;8.20;99.90;;;;;;5053280;28;20457;-84
2021/01/29 00:15:41;;;;;;;0.50;0.37;;;8.50;99.90;;;;;;5049885;28;20439;-84
2021/01/29 00:18:08;;;;;;;0.73;0.50;;;8.40;99.90;;;;;;5053364;28;20458;-84
2021/01/29 00:20:35;;;;;;;0.60;0.50;;;8.90;99.90;;;;;;5053241;28;20461;-84
2021/01/29 00:23:01;;;;;;;0.93;0.43;;;8.40;99.90;;;;;;5053234;28;20494;-84
2021/01/29 00:25:32;;;;;;;0.50;0.30;;;8.50;99.90;;;;;;5051766;28;20449;-83
2021/01/29 00:27:59;;;;;;;1.37;0.50;;;8.20;99.90;;;;;;5053158;28;20446;-85
2021/01/29 00:30:26;;;;;;;0.57;0.43;;;8.40;99.90;;;;;;5053470;28;20799;-85
2021/01/29 00:32:53;;;;;;;2.20;0.57;;;8.20;99.90;;;;;;5053164;28;20450;-84
2021/01/29 00:35:21;;;;;;;1.33;0.40;;;8.30;99.90;;;;;;5053335;28;20451;-86
2021/01/29 00:37:47;;;;;;;1.13;0.80;;;8.00;99.90;;;;;;5053192;28;20452;-84
2021/01/29 00:40:15;;;;;;;0.80;0.53;;;8.00;99.90;;;;;;5052136;28;20450;-87
2021/01/29 00:42:42;;;;;;;0.70;0.60;;;8.30;99.90;;;;;;5053173;28;20496;-84
2021/01/29 00:45:10;;;;;;;0.87;0.63;;;8.30;99.90;;;;;;5053331;28;20457;-85
2021/01/29 00:47:37;;;;;;;0.80;0.73;;;7.90;99.90;;;;;;5053126;28;20450;-85
2021/01/29 00:50:05;;;;;;;1.47;0.77;;;8.10;99.90;;;;;;5058448;28;20450;-84
2021/01/29 00:52:31;;;;;;;3.80;0.90;;;8.30;99.90;;;;;;5053966;28;20949;-84
2021/01/29 00:54:58;;;;;;;1.27;0.77;;;8.30;99.90;;;;;;5051875;28;20527;-87
2021/01/29 00:57:24;;;;;;;2.00;0.83;;;8.30;99.90;;;;;;5052981;28;20489;-84
2021/01/29 00:59:51;;;;;;;0.83;0.80;;;8.10;99.90;;;;;;5052751;28;20453;-84
2021/01/29 01:02:18;;;;;;;1.33;1.00;;;8.40;99.90;;;;;;5052768;28;20494;-86
2021/01/29 01:04:44;;;;;;;1.33;0.70;;;8.20;99.90;;;;;;5054586;28;20454;-85
2021/01/29 01:07:11;;;;;;;3.33;0.93;;;8.30;99.90;;;;;;5057076;28;20810;-89
2021/01/29 01:09:38;;;;;;;2.53;1.17;;;8.40;99.90;;;;;;5055687;28;20778;-83
2021/01/29 01:12:04;;;;;;;1.10;1.00;;;8.30;99.90;;;;;;5058416;28;20455;-84
2021/01/29 01:14:31;;;;;;;0.80;0.67;;;8.40;99.90;;;;;;5057290;28;20447;-84
2021/01/29 01:16:58;;;;;;;1.00;1.00;;;8.30;99.90;;;;;;5057223;28;20446;-84
2021/01/29 01:19:24;;;;;;;1.27;0.90;;;8.30;99.90;;;;;;5058460;28;21015;-84
2021/01/29 01:21:50;;;;;;;0.87;0.80;;;8.70;99.90;;;;;;5057878;28;20485;-84
2021/01/29 01:24:17;;;;;;;0.97;0.80;;;;;;;;;;5055392;28;20511;-85
2021/01/29 01:26:43;;;;;;;1.50;0.77;;;8.20;99.90;;;;;;5056736;28;20459;-84
2021/01/29 01:29:10;;;;;;;1.53;0.60;;;8.30;99.90;;;;;;5056505;28;20450;-84
2021/01/29 01:31:36;;;;;;;1.00;0.90;;;8.50;99.90;;;;;;5056583;28;20461;-84
2021/01/29 01:34:03;;;;;;;0.97;0.80;;;8.30;99.90;;;;;;5056455;28;20458;-83
2021/01/29 01:36:29;;;;;;;0.80;0.80;;;;;;;;;;5056408;28;20450;-84
2021/01/29 01:38:56;;;;;;;1.10;1.00;;;8.10;99.90;;;;;;5055021;28;20442;-86
2021/01/29 01:41:22;;;;;;;1.97;0.80;;;8.50;99.90;;;;;;5056323;28;20453;-87
2021/01/29 01:43:48;;;;;;;0.90;0.60;;;8.30;99.90;;;;;;5055954;28;20447;-83
2021/01/29 01:46:17;;;;;;;2.00;1.50;;;8.10;99.90;;;;;;5055959;28;20446;-86
2021/01/29 01:48:51;;;;;;;0.50;0.40;;;8.30;99.90;;;;;;5056221;28;20443;-84
2021/01/29 01:51:27;;;;;;;1.43;0.90;;;8.40;99.90;;;;;;5056128;28;20446;-85
2021/01/29 01:53:56;;;;;;;1.13;0.80;;;8.20;99.90;;;;;;5055110;28;21014;-84
2021/01/29 01:56:30;;;;;;;1.00;0.63;;;8.20;99.90;;;;;;5056035;28;20479;-84
2021/01/29 01:59:00;;;;;;;2.60;0.53;;;8.00;99.90;;;;;;5054456;28;20481;-85
2021/01/29 02:01:26;;;;;;;0.50;0.50;;;8.20;99.90;;;;;;5054376;28;20454;-85
2021/01/29 02:03:56;;;;;;;1.27;1.10;;;7.70;99.90;;;;;;5054707;28;20454;-84
2021/01/29 02:06:24;;;;;;;0.90;0.60;;;8.30;99.90;;;;;;5054458;28;20537;-84
2021/01/29 02:08:51;;;;;;;0.97;0.90;;;8.20;99.90;;;;;;5053657;28;20473;-84
2021/01/29 02:11:21;;;;;;;1.03;0.67;;;8.20;99.90;;;;;;5054980;28;20450;-86
2021/01/29 02:13:48;;;;;;;0.40;0.30;;;8.40;99.90;;;;;;5054673;28;20462;-84
2021/01/29 02:16:20;;;;;;;1.10;0.57;;;8.50;99.90;;;;;;5054071;28;20814;-84
2021/01/29 02:19:00;;;;;;;2.00;0.80;;;8.50;99.90;;;;;;5058813;28;20456;-84
2021/01/29 02:22:06;;;;;;;1.70;0.60;;;8.30;99.90;;;;;;5055874;28;20930;-84
2021/01/29 02:25:10;;;;;;;0.50;0.40;;;8.30;99.90;;;;;;5053241;28;20450;-83
2021/01/29 02:27:51;;;;;;;0.73;0.40;;;8.50;99.90;;;;;;5003924;28;20447;-85
2021/01/29 02:30:47;;;;;;;0.60;0.40;;;8.10;99.90;;;;;;5054476;28;20446;-85
2021/01/29 02:33:53;;;;;;;1.20;0.50;;;8.20;99.90;;;;;;5054391;28;20815;-87
2021/01/29 02:36:50;;;;;;;2.00;0.53;;;8.50;99.90;;;;;;5054567;28;20442;-87
2021/01/29 02:39:41;;;;;;;0.77;0.50;;;8.20;99.90;;;;;;5053292;28;20450;-87
2021/01/29 02:42:19;;;;;;;0.87;0.50;;;8.20;99.90;;;;;;5054148;28;20482;-87
2021/01/29 02:44:56;;;;;;;0.50;0.40;;;8.20;99.90;;;;;;5053831;28;20438;-84
2021/01/29 02:47:25;;;;;;;0.97;0.50;;;8.50;99.90;;;;;;5054003;28;20442;-86
2021/01/29 02:50:04;;;;;;;1.10;0.50;;;8.50;99.90;;;;;;5053901;28;20784;-85
2021/01/29 02:52:35;;;;;;;1.40;0.60;;;8.40;99.90;;;;;;5054121;28;20855;-86
2021/01/29 02:55:11;;;;;;;0.40;0.40;;;8.30;99.90;;;;;;5052709;28;20475;-84
2021/01/29 02:57:42;;;;;;;0.50;0.40;;;8.30;99.90;;;;;;5034565;28;559427;-85
2021/01/29 03:00:12;;;;;;;0.60;0.40;;;8.20;99.90;;;;;;5054744;28;20451;-83
2021/01/29 03:02:47;;;;;;;0.60;0.60;;;8.50;99.90;;;;;;5054677;28;20833;-84
2021/01/29 03:05:16;;;;;;;0.50;0.30;;;8.30;99.90;;;;;;5054758;28;20445;-84
2021/01/29 03:08:03;;;;;;;0.40;0.30;;;8.30;99.90;;;;;;5054700;28;20450;-85
2021/01/29 03:10:36;;;;;;;1.77;0.60;;;10.00;99.90;;;;;;5053382;28;20447;-86
2021/01/29 03:13:09;;;;;;;1.07;0.43;;;8.50;99.90;;;;;;5054550;28;20942;-84
2021/01/29 03:15:41;;;;;;;0.60;0.47;;;8.50;99.90;;;;;;5054732;28;20815;-84
2021/01/29 03:18:19;;;;;;;0.37;0.23;;;8.40;99.90;;;;;;5053398;28;20459;-85
2021/01/29 03:20:52;;;;;;;0.50;0.30;;;8.30;99.90;;;;;;5055488;28;20459;-84
2021/01/29 03:23:23;;;;;;;0.60;0.40;;;8.40;99.90;;;;;;5053477;28;20501;-83
2021/01/29 03:25:57;;;;;;;0.50;0.40;;;8.50;99.90;;;;;;5054502;28;20446;-85
2021/01/29 03:28:26;;;;;;;0.63;0.40;;;8.20;99.90;;;;;;5053580;28;20451;-84
2021/01/29 03:30:55;;;;;;;0.60;0.43;;;8.40;99.90;;;;;;5055158;28;20926;-87
2021/01/29 03:33:25;;;;;;;0.73;0.30;;;8.60;99.90;;;;;;5054167;28;20859;-84
2021/01/29 03:35:57;;;;;;;0.50;0.50;;;8.30;99.90;;;;;;5054364;28;20500;-84
2021/01/29 03:38:28;;;;;;;1.47;0.50;;;8.50;99.90;;;;;;5053101;28;20805;-84
2021/01/29 03:41:05;;;;;;;0.40;0.30;;;8.50;99.90;;;;;;5054248;28;20457;-84
2021/01/29 03:43:41;;;;;;;0.50;0.30;;;8.40;99.90;;;;;;5053991;28;20508;-85
2021/01/29 03:46:13;;;;;;;0.50;0.40;;;8.60;99.90;;;;;;5053967;28;20453;-83
2021/01/29 03:48:49;;;;;;;0.50;0.40;;;8.70;99.90;;;;;;5058262;28;20454;-83
2021/01/29 03:51:20;;;;;;;0.63;0.40;;;8.60;99.90;;;;;;5054833;28;20461;-84
2021/01/29 03:53:54;;;;;;;0.40;0.40;;;8.50;99.90;;;;;;5052644;28;20459;-84
2021/01/29 03:56:48;;;;;;;0.47;0.33;;;8.40;99.90;;;;;;5053668;28;20454;-82
2021/01/29 03:59:23;;;;;;;0.43;0.30;;;8.30;99.90;;;;;;5053863;28;20493;-83
2021/01/29 04:01:56;;;;;;;1.30;0.57;;;8.60;99.90;;;;;;5053726;28;20507;-85
2021/01/29 04:04:27;;;;;;;2.57;0.40;;;8.10;99.90;;;;;;5053840;28;20504;-84
2021/01/29 04:07:00;;;;;;;0.57;0.43;;;8.10;99.90;;;;;;5053507;28;20576;-85
2021/01/29 04:09:34;;;;;;;0.53;0.53;;;8.10;99.90;;;;;;5052491;28;20454;-82
2021/01/29 04:12:03;;;;;;;0.40;0.30;;;8.10;99.90;;;;;;5053714;28;20446;-85
2021/01/29 04:14:36;;;;;;;1.53;0.60;;;8.30;99.90;;;;;;5053651;28;20869;-84
2021/01/29 04:17:11;;;;;;;0.40;0.40;;;8.30;99.90;;;;;;5053334;28;20447;-85
2021/01/29 04:19:40;;;;;;;1.37;0.40;;;8.30;99.90;;;;;;5053615;28;20533;-84
2021/01/29 04:22:13;;;;;;;0.40;0.30;;;8.20;99.90;;;;;;5053401;28;20486;-84
2021/01/29 04:24:43;;;;;;;0.50;0.30;;;8.10;99.90;;;;;;5052221;28;20470;-85
2021/01/29 04:27:14;;;;;;;0.50;0.30;;;8.30;99.90;;;;;;5053344;28;20832;-84
2021/01/29 04:29:45;;;;;;;1.03;0.70;;;8.50;99.90;;;;;;5053290;28;20807;-83
2021/01/29 04:32:16;;;;;;;0.43;0.30;;;8.20;99.90;;;;;;5053342;28;20964;-83
2021/01/29 04:34:45;;;;;;;1.37;1.03;;;8.10;99.90;;;;;;5053403;28;20858;-84
2021/01/29 04:37:17;;;;;;;0.50;0.40;;;8.10;99.90;;;;;;5053345;28;20451;-83
2021/01/29 04:39:46;;;;;;;0.60;0.30;;;8.30;99.90;;;;;;5052299;28;20938;-83
2021/01/29 04:42:24;;;;;;;0.37;0.23;;;8.10;99.90;;;;;;5054507;28;20490;-84
2021/01/29 04:45:13;;;;;;;0.50;0.40;;;8.10;99.90;;;;;;5053869;28;20818;-84
2021/01/29 04:47:43;;;;;;;0.70;0.30;;;7.90;99.90;;;;;;5053129;28;20451;-84
2021/01/29 04:50:18;;;;;;;0.60;0.40;;;8.00;99.90;;;;;;5052778;28;20469;-83
2021/01/29 04:53:16;;;;;;;0.60;0.50;;;8.00;99.90;;;;;;5052430;28;20438;-84
2021/01/29 04:56:12;;;;;;;0.67;0.57;;;7.60;99.90;;;;;;5052097;28;20466;-83
2021/01/29 04:58:52;;;;;;;0.40;0.30;;;8.10;99.90;;;;;;5052743;28;20482;-85
2021/01/29 05:01:45;;;;;;;0.70;0.30;;;8.00;99.90;;;;;;5052583;28;20451;-87
2021/01/29 05:04:36;;;;;;;0.50;0.30;;;7.90;99.90;;;;;;5051440;28;20453;-85
2021/01/29 05:07:19;;;;;;;0.60;0.40;;;8.10;99.90;;;;;;5052842;28;20450;-84
2021/01/29 05:10:17;;;;;;;0.40;0.30;;;8.00;99.90;;;;;;5051712;28;20451;-83
2021/01/29 05:13:12;;;;;;;0.40;0.30;;;8.00;99.90;;;;;;5042543;28;20455;-85
2021/01/29 05:16:15;;;;;;;0.40;0.30;;;8.10;99.90;;;;;;5053196;28;20439;-82
2021/01/29 05:19:11;;;;;;;0.30;0.20;;;7.60;99.90;;;;;;5024466;28;20457;-83
2021/01/29 05:22:11;;;;;;;0.97;0.40;;;8.10;99.90;;;;;;5052667;28;20458;-84
2021/01/29 05:24:53;;;;;;;0.77;0.40;;;8.10;99.90;;;;;;5051462;28;20455;-84
2021/01/29 05:27:45;;;;;;;0.40;0.30;;;8.10;99.90;;;;;;5052293;28;20460;-85
2021/01/29 05:30:27;;;;;;;2.10;0.50;;;8.00;99.90;;;;;;5052525;28;20455;-83
2021/01/29 05:33:07;;;;;;;0.40;0.30;;;8.20;99.90;;;;;;5052621;28;20451;-84
2021/01/29 05:35:45;;;;;;;0.40;0.30;;;8.20;99.90;;;;;;5052612;28;20465;-83
2021/01/29 05:38:41;;;;;;;0.40;0.30;;;7.80;99.90;;;;;;5052619;28;20446;-83
2021/01/29 05:41:34;;;;;;;0.77;0.40;;;8.10;99.90;;;;;;5052304;28;20447;-83
2021/01/29 05:44:39;;;;;;;0.90;0.50;;;7.90;99.90;;;;;;5049809;28;20508;-84
2021/01/29 05:47:21;;;;;;;0.40;0.30;;;7.90;99.90;;;;;;5054419;28;20450;-85
2021/01/29 05:50:03;;;;;;;0.40;0.30;;;7.60;99.90;;;;;;5052496;28;20458;-83
2021/01/29 05:52:59;;;;;;;1.23;0.40;;;8.00;99.90;;;;;;5056109;28;21011;-83
2021/01/29 05:55:38;;;;;;;1.13;0.30;;;7.60;99.90;;;;;;5054926;28;20449;-84
2021/01/29 05:58:48;;;;;;;1.10;0.60;;;7.70;99.90;;;;;;5054397;28;20482;-84
2021/01/29 06:01:42;;;;;;;0.50;0.30;;;7.80;99.90;;;;;;5055966;28;20457;-84
2021/01/29 06:04:44;;;;;;;0.40;0.30;;;7.80;99.90;;;;;;5055984;28;20465;-84
2021/01/29 06:07:32;;;;;;;0.60;0.50;;;7.50;99.90;;;;;;5012171;28;20461;-84
2021/01/29 06:10:25;;;;;;;0.40;0.30;;;7.80;99.90;;;;;;5054780;28;20488;-85
2021/01/29 06:13:17;;;;;;;0.30;0.20;;;7.50;99.90;;;;;;5056135;28;20446;-84
2021/01/29 06:16:05;;;;;;;1.97;0.40;;;7.60;99.90;;;;;;5043008;28;20459;-86
2021/01/29 06:19:17;;;;;;;0.50;0.40;;;7.80;99.90;;;;;;5055624;28;20450;-85
2021/01/29 06:22:16;;;;;;;1.57;0.50;;;7.50;99.90;;;;;;5055685;28;20446;-84
2021/01/29 06:25:09;;;;;;;1.33;0.40;;;7.60;99.90;;;;;;5028318;28;20489;-85
2021/01/29 06:27:56;;;;;;;1.93;0.50;;;7.80;99.90;;;;;;5055522;28;20446;-83
2021/01/29 06:30:44;;;;;;;10.40;5.23;;;7.90;99.90;;;;;;5055127;28;20439;-82
2021/01/29 06:33:42;;;;;;;1.70;0.60;;;7.80;99.90;;;;;;5055305;28;20504;-85
2021/01/29 06:36:20;;;;;;;0.77;0.63;;;7.80;99.90;;;;;;5055346;28;20446;-83
2021/01/29 06:39:18;;;;;;;1.83;0.50;;;8.20;99.90;;;;;;5054131;28;20446;-89
2021/01/29 06:41:53;;;;;;;0.40;0.30;;;8.20;99.90;;;;;;5055615;28;20451;-89
2021/01/29 06:44:45;;;;;;;0.40;0.30;;;7.90;99.90;;;;;;5056194;28;20454;-85
2021/01/29 06:47:27;;;;;;;0.77;0.43;;;8.30;99.90;;;;;;5060324;28;20465;-86
2021/01/29 06:50:21;;;;;;;2.97;0.93;;;8.00;99.90;;;;;;5055072;28;20457;-84
2021/01/29 06:53:38;;;;;;;3.87;0.70;;;8.50;99.90;;;;;;5045025;28;20463;-84
2021/01/29 06:56:49;;;;;;;1.80;0.50;;;8.30;99.90;;;;;;4990674;28;20464;-87
2021/01/29 06:59:41;;;;;;;1.80;0.53;;;8.10;99.90;;;;;;5055126;28;20470;-86
2021/01/29 07:02:44;;;;;;;1.00;0.60;;;8.30;99.90;;;;;;5053761;28;20482;-83
2021/01/29 07:05:32;;;;;;;1.90;0.77;;;8.40;99.90;;;;;;5054805;28;20815;-84
2021/01/29 07:08:09;;;;;;;5.60;0.70;;;8.20;99.90;;;;;;5051589;28;20458;-84
2021/01/29 07:10:54;;;;;;;3.40;0.40;;;8.40;99.90;;;;;;5053656;28;20937;-86
2021/01/29 07:13:37;;;;;;;0.63;0.53;;;8.20;99.90;;;;;;5054086;28;20455;-90
2021/01/29 07:16:15;;;;;;;0.50;0.30;;;8.60;99.90;;;;;;5054866;28;20465;-87
2021/01/29 07:19:13;;;;;;;0.50;0.40;;;8.50;99.90;;;;;;5054609;28;20450;-84
2021/01/29 07:22:10;;;;;;;0.40;0.30;;;8.20;99.90;;;;;;5054787;28;20457;-85
2021/01/29 07:24:44;;;;;;;0.43;0.30;;;8.70;99.90;;;;;;5027517;28;20447;-85
2021/01/29 07:27:22;;;;;;;0.40;0.30;;;8.50;99.90;;;;;;5054246;28;20539;-85
2021/01/29 07:30:24;;;;;;;1.63;0.40;;;8.30;99.90;;;;;;5051370;28;20451;-84
2021/01/29 07:33:00;;;;;;;1.87;1.77;;;8.50;99.90;;;;;;5019287;28;20454;-83
2021/01/29 07:35:32;;;;;;;1.07;0.97;;;8.40;99.90;;;;;;5039037;28;20501;-87
2021/01/29 07:38:45;;;;;;;0.50;0.30;;;8.40;99.90;;;;;;5034245;28;20625;-83
2021/01/29 07:41:32;;;;;;;0.73;0.70;;;8.70;99.90;;;;;;5034259;28;20455;-84
2021/01/29 07:44:30;;;;;;;1.20;0.53;;;8.60;99.90;;;;;;5033858;28;20495;-84
2021/01/29 07:47:13;;;;;;;0.70;0.30;;;8.80;99.90;;;;;;5033230;28;20463;-88
2021/01/29 07:49:52;;;;;;;0.53;0.30;;;8.50;99.90;;;;;;5033971;28;20478;-85
2021/01/29 07:52:31;;;;;;;1.70;0.40;;;8.70;99.90;;;;;;5033743;28;20447;-84
2021/01/29 07:55:17;;;;;;;0.30;0.20;;;8.60;99.90;;;;;;5032762;28;20469;-84
2021/01/29 07:58:09;;;;;;;0.40;0.30;;;8.80;99.90;;;;;;5031269;28;20502;-85
2021/01/29 08:00:49;;;;;;;0.40;0.30;;;8.80;99.90;;;;;;5037624;28;20459;-84
2021/01/29 08:03:52;;;;;;;0.50;0.30;;;8.40;99.90;;;;;;5036014;28;20697;-86
2021/01/29 08:06:24;;;;;;;1.43;0.63;;;8.80;99.90;;;;;;5034205;28;20811;-86
2021/01/29 08:08:55;;;;;;;0.40;0.20;;;8.70;99.90;;;;;;5032621;28;20446;-85
2021/01/29 08:11:24;;;;;;;1.03;0.37;;;9.00;99.90;;;;;;5033973;28;20439;-84
2021/01/29 08:14:23;;;;;;;1.77;0.40;;;8.90;99.90;;;;;;5039010;28;20452;-85
2021/01/29 08:17:07;;;;;;;0.40;0.20;;;9.20;99.90;;;;;;5036530;28;20459;-86
2021/01/29 08:19:43;;;;;;;1.03;0.30;;;8.80;99.90;;;;;;5034282;28;20458;-86
2021/01/29 08:22:39;;;;;;;0.40;0.30;;;8.90;99.90;;;;;;5033426;28;20486;-85
2021/01/29 08:25:33;;;;;;;0.40;0.20;;;9.10;99.90;;;;;;5032341;28;20490;-84
2021/01/29 08:28:33;;;;;;;2.57;0.47;;;9.00;99.90;;;;;;5033485;28;20443;-86
2021/01/29 08:31:41;;;;;;;0.50;0.40;;;9.10;99.90;;;;;;5033441;28;20490;-86
2021/01/29 08:34:34;;;;;;;0.70;0.67;;;9.30;99.90;;;;;;5033188;28;20482;-87
2021/01/29 08:37:31;;;;;;;0.60;0.30;;;9.10;99.90;;;;;;5033720;28;20939;-86
2021/01/29 08:40:08;;;;;;;0.50;0.30;;;9.30;99.90;;;;;;5032245;28;20817;-88
2021/01/29 08:42:50;;;;;;;0.40;0.20;;;9.20;99.90;;;;;;5033198;28;20483;-86
2021/01/29 08:45:30;;;;;;;0.60;0.40;;;9.20;99.90;;;;;;5033508;28;20463;-86
2021/01/29 08:48:22;;;;;;;0.40;0.20;;;9.30;99.90;;;;;;5033327;28;20447;-88
2021/01/29 08:51:03;;;;;;;1.23;0.30;;;9.20;99.90;;;;;;5033180;28;20450;-85
2021/01/29 08:53:55;;;;;;;0.67;0.47;;;9.30;99.90;;;;;;5028999;28;20472;-87
2021/01/29 08:56:38;;;;;;;0.87;0.33;;;9.20;99.90;;;;;;5034801;28;20462;-96
2021/01/29 08:59:07;;;;;;;0.70;0.30;;;9.00;99.90;;;;;;5033520;28;20482;-86
2021/01/29 09:01:40;;;;;;;0.83;0.33;;;9.20;99.90;;;;;;5032645;28;20470;-87
2021/01/29 09:04:15;;;;;;;1.20;0.33;;;9.20;99.90;;;;;;5032617;28;20495;-89
2021/01/29 09:06:44;;;;;;;0.40;0.30;;;9.40;99.90;;;;;;5033019;28;20447;-85
2021/01/29 09:09:18;;;;;;;0.63;0.30;;;9.10;99.90;;;;;;5031375;28;20443;-88
2021/01/29 09:11:49;;;;;;;0.40;0.20;;;8.80;99.90;;;;;;5032504;28;20455;-86
2021/01/29 09:14:23;;;;;;;0.40;0.20;;;9.20;99.90;;;;;;5032490;28;20526;-86
2021/01/29 09:16:58;;;;;;;0.40;0.30;;;9.40;99.90;;;;;;5032448;28;20447;-84
2021/01/29 09:19:25;;;;;;;0.40;0.20;;;9.20;99.90;;;;;;5032624;28;20532;-86
2021/01/29 09:21:59;;;;;;;0.43;0.30;;;9.50;99.90;;;;;;5032351;28;20439;-86
2021/01/29 09:24:39;;;;;;;0.50;0.30;;;9.10;99.90;;;;;;5031150;28;20501;-86
2021/01/29 09:27:26;;;;;;;0.40;0.27;;;10.20;99.90;;;;;;5036414;28;20454;-86
2021/01/29 09:29:57;;;;;;;0.60;0.37;;;10.70;99.90;;;;;;5036770;28;20464;-86
2021/01/29 09:32:51;;;;;;;1.13;0.30;;;10.90;99.90;;;;;;5036426;28;20792;-85
2021/01/29 09:35:29;;;;;;;0.50;0.30;;;11.30;99.90;;;;;;5037502;28;20470;-85
2021/01/29 09:37:57;;;;;;;1.23;0.60;;;11.20;99.90;;;;;;5037775;28;20497;-90
2021/01/29 09:40:27;;;;;;;2.43;0.40;;;11.10;99.90;;;;;;5035363;28;20439;-86
2021/01/29 09:43:11;;;;;;;0.70;0.50;;;10.80;99.90;;;;;;5040900;28;20487;-85
2021/01/29 09:45:39;;;;;;;0.50;0.30;;;10.50;99.90;;;;;;5043211;28;20831;-84
2021/01/29 09:48:08;;;;;;;2.77;0.73;;;10.10;99.90;;;;;;5037036;28;20455;-87
2021/01/29 09:50:35;;;;;;;2.47;0.57;;;;;;;;;;5036348;28;21017;-90
2021/01/29 09:53:21;;;;;;;1.83;0.47;;;10.30;99.90;;;;;;5036493;28;21012;-87
2021/01/29 09:55:56;;;;;;;2.20;0.43;;;10.50;99.90;;;;;;5037936;28;20497;-89
2021/01/29 09:58:31;;;;;;;0.90;0.40;;;11.00;99.90;;;;;;5039477;28;20516;-92
2021/01/29 10:01:04;;;;;;;1.20;0.67;;;10.80;99.90;;;;;;5056149;28;20438;-89
2021/01/29 10:03:36;;;;;;;1.90;0.50;;;11.10;99.90;;;;;;5056349;28;20497;-88
2021/01/29 10:06:07;;;;;;;1.60;0.63;;;11.20;99.90;;;;;;5051645;28;20473;-89
2021/01/29 10:08:37;;;;;;;0.53;0.40;;;11.00;99.90;;;;;;5034966;28;20435;-88
2021/01/29 10:11:07;;;;;;;3.60;0.70;;;10.70;99.90;;;;;;5036007;28;20459;-88
2021/01/29 10:13:49;;;;;;;4.37;0.53;;;10.70;99.90;;;;;;5036198;28;20526;-91
2021/01/29 10:16:26;;;;;;;1.73;0.30;;;10.40;99.90;;;;;;5036770;28;20502;-86
2021/01/29 10:19:01;;;;;;;3.00;0.90;;;9.90;99.90;;;;;;5047521;28;20457;-89
2021/01/29 10:22:02;;;;;;;3.10;0.73;;;9.60;99.90;;;;;;5042153;28;20458;-91
2021/01/29 10:24:34;;;;;;;3.07;0.50;;;9.80;99.90;;;;;;5038045;28;20443;-89
2021/01/29 10:27:04;;;;;;;3.73;0.80;;;9.40;99.90;;;;;;5039454;28;20443;-89
2021/01/29 10:29:36;;;;;;;1.10;0.50;;;10.70;99.90;;;;;;5036513;28;20452;-87
2021/01/29 10:32:05;;;;;;;3.23;0.60;;;10.70;99.90;;;;;;5036082;28;20966;-88
2021/01/29 10:34:39;;;;;;;1.77;0.60;;;11.10;99.90;;;;;;5035338;28;20534;-88
2021/01/29 10:37:14;;;;;;;0.47;0.33;;;11.00;99.90;;;;;;5035112;28;20811;-88
2021/01/29 10:39:53;;;;;;;0.80;0.40;;;11.50;99.90;;;;;;5034278;28;20455;-89
2021/01/29 10:42:26;;;;;;;1.87;0.50;;;11.50;99.90;;;;;;5035873;28;20487;-90
2021/01/29 10:44:55;;;;;;;1.87;0.70;;;11.60;99.90;;;;;;5036088;28;20951;-90
2021/01/29 10:47:36;;;;;;;2.30;0.50;;;11.30;99.90;;;;;;5054528;28;20442;-87
2021/01/29 10:50:13;;;;;;;1.60;0.80;;;10.90;99.90;;;;;;5055334;28;20447;-88
2021/01/29 10:52:43;;;;;;;4.03;0.93;;;11.80;99.90;;;;;;5055616;28;20478;-86
2021/01/29 10:55:21;;;;;;;3.53;0.90;;;12.30;99.90;;;;;;5054524;28;20442;-85
2021/01/29 10:57:57;;;;;;;2.20;0.80;;;11.10;99.90;;;;;;5055853;28;20984;-85
2021/01/29 11:00:28;;;;;;;2.87;0.77;;;10.90;99.90;;;;;;5055479;28;20446;-92
2021/01/29 11:03:04;;;;;;;1.70;0.77;;;10.90;99.90;;;;;;5055146;28;20891;-87
2021/01/29 11:05:33;;;;;;;3.20;0.80;;;10.50;99.90;;;;;;5055016;28;20449;-89
2021/01/29 11:08:05;;;;;;;1.40;0.70;;;10.30;99.90;;;;;;5055246;28;20466;-92
2021/01/29 11:10:32;;;;;;;3.10;1.60;;;;;;;;;;5054218;28;20819;-88
2021/01/29 11:13:04;;;;;;;2.27;0.97;;;10.50;99.90;;;;;;5057894;28;20482;-86
2021/01/29 11:15:38;;;;;;;1.37;0.77;;;10.20;99.90;;;;;;5056468;28;20457;-88
2021/01/29 11:18:13;;;;;;;2.73;0.90;;;10.20;99.90;;;;;;5054256;28;20454;-90
2021/01/29 11:20:41;;;;;;;1.97;1.00;;;10.30;99.90;;;;;;5054591;28;20445;-85
2021/01/29 11:23:22;;;;;;;1.90;0.60;;;9.70;99.90;;;;;;5050825;28;20502;-86
2021/01/29 11:26:08;;;;;;;1.47;0.80;;;9.70;99.90;;;;;;5053867;28;20937;-87
2021/01/29 11:28:44;;;;;;;1.73;0.80;;;9.60;99.90;;;;;;5054354;28;20504;-89
2021/01/29 11:31:17;;;;;;;0.80;0.50;;;9.40;99.90;;;;;;5054664;28;20462;-85
2021/01/29 11:33:49;;;;;;;1.70;0.70;;;9.40;99.90;;;;;;5054620;28;20454;-87
2021/01/29 11:36:32;;;;;;;3.57;0.93;;;9.60;99.90;;;;;;5054532;28;20473;-85
2021/01/29 11:39:07;;;;;;;0.50;0.40;;;9.60;99.90;;;;;;5053463;28;20489;-85
2021/01/29 11:41:47;;;;;;;1.53;0.90;;;9.80;99.90;;;;;;5054115;28;20445;-85
2021/01/29 11:44:21;;;;;;;2.40;0.43;;;9.70;99.90;;;;;;5054130;28;20548;-86
2021/01/29 11:46:56;;;;;;;3.03;0.70;;;9.50;99.90;;;;;;5054311;28;20446;-87
2021/01/29 11:49:28;;;;;;;2.33;0.80;;;9.80;99.90;;;;;;5036672;28;20501;-85
2021/01/29 11:52:17;;;;;;;4.03;1.10;;;9.50;99.90;;;;;;5036454;28;20471;-87
2021/01/29 11:54:51;;;;;;;1.13;0.70;;;9.90;99.90;;;;;;5033207;28;20451;-88
2021/01/29 11:57:24;;;;;;;2.13;0.50;;;9.80;99.90;;;;;;5033954;28;20482;-87
2021/01/29 11:59:55;;;;;;;3.60;1.50;;;10.00;99.90;;;;;;5034326;28;20502;-87
2021/01/29 12:02:32;;;;;;;3.30;1.20;;;9.80;99.90;;;;;;5033883;28;20474;-88
2021/01/29 12:05:18;;;;;;;2.13;0.50;;;9.80;99.90;;;;;;5033987;28;20456;-85
2021/01/29 12:07:51;;;;;;;4.27;0.77;;;9.50;99.90;;;;;;5033365;28;20447;-89
2021/01/29 12:10:26;;;;;;;3.90;1.13;;;9.80;99.90;;;;;;5035264;28;20455;-86
2021/01/29 12:12:57;;;;;;;2.13;0.80;;;9.80;99.90;;;;;;5039984;28;20443;-87
2021/01/29 12:15:35;;;;;;;2.70;0.93;;;9.70;99.90;;;;;;5064730;28;20466;-86
2021/01/29 12:18:07;;;;;;;3.83;0.80;;;9.80;99.90;;;;;;5071422;28;20442;-85
2021/01/29 12:20:36;;;;;;;6.10;0.83;;;10.20;99.90;;;;;;5073276;28;20520;-84
2021/01/29 12:23:11;;;;;;;1.17;0.50;;;10.10;99.90;;;;;;5073092;28;20497;-85
2021/01/29 12:26:05;;;;;;;2.30;0.40;;;10.40;99.90;;;;;;5072120;28;20448;-86
2021/01/29 12:28:56;;;;;;;1.33;0.50;;;10.20;99.90;;;;;;5073153;28;20503;-84
2021/01/29 12:31:32;;;;;;;2.20;0.77;;;9.90;99.90;;;;;;5073059;28;20456;-84
2021/01/29 12:34:08;;;;;;;4.83;0.90;;;10.00;99.90;;;;;;5073176;28;20445;-86
2021/01/29 12:36:37;;;;;;;1.17;0.30;;;9.80;99.90;;;;;;5073325;28;20449;-84
2021/01/29 12:39:13;;;;;;;6.43;1.00;;;9.70;99.90;;;;;;5071834;28;20441;-83
2021/01/29 12:41:48;;;;;;;0.80;0.40;;;9.60;99.90;;;;;;5071947;28;20860;-83
2021/01/29 12:44:26;;;;;;;7.20;1.07;;;8.60;99.90;;;;;;5076335;28;20489;-86
2021/01/29 12:46:58;;;;;;;4.30;0.80;;;9.60;99.90;;;;;;5072369;28;20449;-87
2021/01/29 12:49:36;;;;;;;7.20;1.90;;;9.80;99.90;;;;;;5073107;28;20859;-85
2021/01/29 12:52:06;;;;;;;5.30;0.77;;;10.00;99.90;;;;;;5056575;28;20463;-85
2021/01/29 12:54:43;;;;;;;5.30;0.70;;;9.80;99.90;;;;;;5031604;28;20478;-85
2021/01/29 12:57:16;;;;;;;0.50;0.37;;;10.00;99.90;;;;;;5029887;28;20530;-92
2021/01/29 12:59:47;;;;;;;1.67;0.47;;;9.50;99.90;;;;;;5034826;28;20455;-86
2021/01/29 13:02:46;;;;;;;1.07;0.40;;;9.50;99.90;;;;;;5037446;28;20451;-86
2021/01/29 13:05:27;;;;;;;1.40;0.47;;;9.60;99.90;;;;;;5037854;28;20814;-85
2021/01/29 13:08:19;;;;;;;1.70;0.40;;;10.30;99.90;;;;;;5037088;28;20455;-85
2021/01/29 13:10:54;;;;;;;2.00;0.50;;;9.20;99.90;;;;;;5036601;28;20447;-88
2021/01/29 13:13:29;;;;;;;2.30;0.83;;;9.00;99.90;;;;;;5036573;28;20500;-84
2021/01/29 13:16:16;;;;;;;0.70;0.40;;;9.00;99.90;;;;;;5037609;28;20458;-86
2021/01/29 13:18:54;;;;;;;0.97;0.40;;;8.90;99.90;;;;;;5038286;28;20788;-89
2021/01/29 13:21:31;;;;;;;6.03;0.50;;;8.90;99.90;;;;;;5037872;28;20451;-88
2021/01/29 13:23:59;;;;;;;0.40;0.20;;;9.00;99.90;;;;;;5036834;28;20494;-91
2021/01/29 13:26:36;;;;;;;1.27;0.30;;;8.80;99.90;;;;;;5037057;28;20442;-86
2021/01/29 13:29:16;;;;;;;0.83;0.40;;;9.00;99.90;;;;;;5036718;28;20455;-85
2021/01/29 13:31:44;;;;;;;2.77;0.40;;;8.90;99.90;;;;;;5036838;28;20451;-88
2021/01/29 13:34:13;;;;;;;0.80;0.40;;;8.90;99.90;;;;;;5037166;28;20535;-92
2021/01/29 13:37:00;;;;;;;0.50;0.30;;;8.90;99.90;;;;;;5036775;28;20463;-85
2021/01/29 13:39:30;;;;;;;0.60;0.40;;;9.40;99.90;;;;;;5033573;28;20787;-86
2021/01/29 13:41:59;;;;;;;2.53;0.37;;;9.10;99.90;;;;;;5036444;28;20454;-85
2021/01/29 13:44:38;;;;;;;0.60;0.30;;;8.90;99.90;;;;;;5036169;28;20502;-86
2021/01/29 13:47:09;;;;;;;0.90;0.40;;;9.50;99.90;;;;;;5050477;28;20470;-86
2021/01/29 13:49:38;;;;;;;0.63;0.50;;;9.30;99.90;;;;;;5055531;28;20457;-85
2021/01/29 13:52:29;;;;;;;1.40;0.60;;;9.20;99.90;;;;;;5055978;28;20454;-85
2021/01/29 13:54:57;;;;;;;1.50;0.90;;;9.30;99.90;;;;;;5054682;28;20953;-87